Mendon, MI (49072)

12:12 AM EDT on May 06, 2015 (GMT -0400)
Three Rivers Municipal-Haines | | Change Station
CLOSE
Current Station
Airport
Location: Three Rivers,
Elevation: 823 ft
Nearby Weather Stations

Elev 823 ft 41.96 °N, 85.59 °W | Updated 17 minutes ago

Overcast
Overcast
52 °F
Feels Like 52 °F
N
4
Wind Variable Wind from East

Today
High -- | Low -- °F
--% Chance of Precip.
Yesterday
High -- | Low -- °F
Precip. -- in
6:31 AM 8:45 PM
Waning Gibbous, 96% visible
Pressure 30.25 in
Visibility 5.0 miles
Clouds Mostly Cloudy 600 ft
Mostly Cloudy 10000 ft
Dew Point 50 °F
Humidity 93%
Rainfall 0.00 in
Snow Depth Not available.
UV 0 out of 12
Pollen .50 out of 12
Air Quality Not available.
Flu Activity Regional
METAR KHAI 060355Z AUTO 08003KT 5SM BR BKN006 BKN100 11/10 A3025 RMK AO2 T01120101

More Conditions Fewer Conditions

Pressure 30.25 in
Visibility 5.0 miles
Clouds Mostly Cloudy 600 ft
Mostly Cloudy 10000 ft
Dew Point 50 °F
Humidity 93%
Rainfall 0.00 in
Snow Depth Not available.
UV 0 out of 12
Pollen .50 out of 12
Air Quality Not available.
Flu Activity Regional
METAR KHAI 060355Z AUTO 08003KT 5SM BR BKN006 BKN100 11/10 A3025 RMK AO2 T01120101

More Conditions Fewer Conditions

10-Day Weather Forecast

Almanac

Astronomy

May. 06, 2015 Rise Set
Actual Time
Civil Twilight
Nautical Twilight
Astronomical Twilight
Moon
Length of Visible Light
Length of Day
Tomorrow will be .
, % of the Moon is Illuminated

Today's Extremes

State Highs State Lows

Community

WunderPhotos

Upload Photos

1,819,021 photos uploaded!

WunderBlogs® & News

Nearby

Air Quality

  Air Quality AQ Index Pollutant
Not available.

Snow Depth

Station Depth Elevation

Earthquake Activity

City Distance Mag. Time & Date
Minimum magnitude displayed is 2.5.

Coastal Water Temperatures

Place Temperature

Stations

Nearby Weather Stations

Station Location Temp. Windchill Dew Point Humidity Wind Precip. Elev Updated Type